Time;durP1;ratioP1;P1;durP2;ratioP2;P2;SDS_P1;SDS_P2;PMS_P1;PMS_P2;Temp;Humidity;BMP_temperature;BMP_pressure;BME280_temperature;BME280_humidity;BME280_pressure;Samples;Min_cycle;Max_cycle;Signal;HPM_P1;HPM_P2
2022/06/20 04:43:22;;;;;;;;;32.75;30.00;;;;;23.23;55.60;100926.31;5056144;27;45498;-74
2022/06/20 04:46:02;;;;;;;;;28.75;28.25;;;;;23.27;55.78;100934.94;5044737;28;45537;-73
2022/06/20 04:48:28;;;;;;;;;26.50;25.50;;;;;23.36;55.10;100925.88;5034401;28;45592;-74
2022/06/20 04:51:06;;;;;;;;;27.00;26.75;;;;;23.52;55.06;100930.53;5047973;28;46521;-73
2022/06/20 04:53:35;;;;;;;;;27.75;26.50;;;;;23.68;54.76;100934.28;5049552;28;47038;-74
2022/06/20 04:56:07;;;;;;;;;28.25;27.00;;;;;23.84;54.28;100940.75;5048995;28;45447;-72
2022/06/20 04:58:39;;;;;;;;;26.00;24.75;;;;;23.98;53.73;100945.53;5049024;28;45395;-73
2022/06/20 05:01:07;;;;;;;;;21.00;20.00;;;;;24.14;53.21;100950.16;5044682;28;45767;-73
2022/06/20 05:03:39;;;;;;;;;25.67;25.67;;;;;24.26;53.01;100956.09;5045751;28;46187;-73
2022/06/20 05:06:09;;;;;;;;;25.33;24.33;;;;;24.38;52.70;100950.34;5050810;28;45447;-73
2022/06/20 05:08:41;;;;;;;;;20.33;18.00;;;;;24.45;52.45;100946.78;5041838;28;45470;-71
2022/06/20 05:11:40;;;;;;;;;26.25;24.75;;;;;24.55;52.02;100945.75;5046138;28;45665;-72
2022/06/20 05:14:11;;;;;;;;;21.67;20.33;;;;;24.62;51.98;100949.50;5039301;28;45575;-71
2022/06/20 05:16:43;;;;;;;;;26.00;25.33;;;;;24.71;52.14;100964.75;5037969;28;47528;-70
2022/06/20 05:19:15;;;;;;;;;19.33;19.00;;;;;24.81;52.39;100967.28;5033895;28;45950;-70
2022/06/20 05:21:45;;;;;;;;;21.00;20.00;;;;;24.89;52.24;100969.16;5039929;28;45956;-72
2022/06/20 05:24:14;;;;;;;;;25.00;23.67;;;;;24.95;51.96;100973.91;5041780;28;46354;-72
2022/06/20 05:26:44;;;;;;;;;26.67;25.67;;;;;25.00;52.10;100976.09;5059898;28;45828;-72
2022/06/20 05:29:21;;;;;;;;;25.33;25.33;;;;;25.04;51.49;100982.03;5035149;28;45598;-71
2022/06/20 05:31:52;;;;;;;;;28.00;24.67;;;;;25.07;51.53;100984.41;5037731;28;45899;-72
2022/06/20 05:34:26;;;;;;;;;25.67;25.33;;;;;25.08;51.30;100984.22;5036236;28;46289;-72
2022/06/20 05:37:03;;;;;;;;;26.33;26.33;;;;;25.09;51.30;100979.66;5041121;28;45506;-73
2022/06/20 05:39:33;;;;;;;;;22.00;22.00;;;;;25.11;51.55;100989.34;5040774;28;45481;-69
2022/06/20 05:41:59;;;;;;;;;21.33;20.00;;;;;25.15;51.07;100994.41;5040070;28;45445;-70
2022/06/20 05:44:24;;;;;;;;;25.00;22.67;;;;;25.16;51.05;101001.50;5037018;28;45517;-71
2022/06/20 05:47:00;;;;;;;;;24.00;22.67;;;;;25.12;50.62;100999.16;5041646;28;45471;-71
2022/06/20 05:49:38;;;;;;;;;25.00;23.33;;;;;25.16;50.47;101009.66;5038549;28;45731;-71
2022/06/20 05:52:07;;;;;;;;;23.33;23.33;;;;;25.10;50.84;100998.47;5035829;28;45443;-70
2022/06/20 05:54:49;;;;;;;;;23.00;22.00;;;;;25.07;50.49;101000.69;5022453;28;45734;-71
2022/06/20 05:57:19;;;;;;;;;24.00;24.00;;;;;25.03;51.19;100997.50;5034861;28;45426;-70
2022/06/20 05:59:51;;;;;;;;;26.67;26.67;;;;;25.06;50.66;101010.69;5019742;28;45945;-73
2022/06/20 06:02:22;;;;;;;;;27.67;26.67;;;;;25.07;50.96;101017.84;5028402;28;45409;-72
2022/06/20 06:05:18;;;;;;;;;23.67;23.67;;;;;25.11;50.49;101012.91;5016528;28;46908;-72
2022/06/20 06:07:55;;;;;;;;;22.00;22.00;;;;;25.09;50.08;101023.13;5023432;28;47083;-71
2022/06/20 06:10:36;;;;;;;;;23.33;23.33;;;;;25.06;50.17;101013.41;5027812;28;45593;-72
2022/06/20 06:13:38;;;;;;;;;24.67;21.33;;;;;25.05;50.34;101022.59;5026968;28;45517;-74
2022/06/20 06:19:18;;;;;;;;;23.67;23.67;;;;;25.10;49.76;101036.50;5001206;28;46489;-74
2022/06/20 06:21:47;;;;;;;;;26.33;26.33;;;;;25.06;50.06;101043.28;5009248;28;45719;-73
2022/06/20 06:24:16;;;;;;;;;24.00;23.00;;;;;25.04;50.17;101039.91;5010987;28;45437;-72
2022/06/20 06:26:45;;;;;;;;;26.33;23.33;;;;;25.02;50.34;101035.66;5011779;28;45460;-71
2022/06/20 06:29:19;;;;;;;;;23.67;23.67;;;;;25.03;50.33;101051.78;5009946;28;45536;-74
2022/06/20 06:31:47;;;;;;;;;26.33;26.33;;;;;25.02;50.17;101051.97;5007259;28;45502;-73
2022/06/20 06:34:37;;;;;;;;;26.33;25.67;;;;;24.99;49.96;101053.16;5008019;28;45930;-74
2022/06/20 06:37:18;;;;;;;;;23.33;23.33;;;;;24.99;50.08;101066.72;4993040;28;46936;-74
2022/06/20 06:39:51;;;;;;;;;32.67;29.33;;;;;24.98;49.99;101065.03;5008077;28;45505;-74
2022/06/20 06:42:17;;;;;;;;;25.00;24.67;;;;;25.00;50.03;101057.56;5007114;28;55085;-74
2022/06/20 06:44:49;;;;;;;;;22.67;21.33;;;;;24.98;50.18;101057.72;5006737;28;45602;-74
2022/06/20 06:47:36;;;;;;;;;24.67;23.33;;;;;24.95;50.05;101060.78;5000719;28;46978;-74
2022/06/20 06:50:18;;;;;;;;;23.33;21.67;;;;;24.94;50.23;101066.41;5002986;28;45885;-74
2022/06/20 06:52:51;;;;;;;;;24.00;24.00;;;;;24.91;49.89;101070.31;5021624;28;45754;-74
2022/06/20 06:55:16;;;;;;;;;21.67;21.33;;;;;24.93;50.07;101079.09;5021004;28;45293;-74
2022/06/20 06:57:47;;;;;;;;;26.67;23.33;;;;;24.92;50.03;101082.00;5028658;28;47093;-74
2022/06/20 07:00:46;;;;;;;;;25.67;22.67;;;;;24.85;50.06;101085.38;5023270;28;45561;-74
2022/06/20 07:03:18;;;;;;;;;22.67;22.67;;;;;24.83;49.88;101089.28;5005424;28;45544;-75
2022/06/20 07:05:54;;;;;;;;;23.67;22.33;;;;;24.80;50.33;101092.34;5004403;28;45470;-73
2022/06/20 07:08:26;;;;;;;;;23.00;21.00;;;;;24.81;50.60;101113.84;5010745;28;46629;-72
2022/06/20 07:11:12;;;;;;;;;21.67;21.67;;;;;24.83;49.91;101119.16;5003460;28;46432;-73
2022/06/20 07:13:43;;;;;;;;;22.67;22.67;;;;;24.83;50.06;101120.00;5001254;28;45469;-73
2022/06/20 07:16:20;;;;;;;;;22.00;22.00;;;;;24.83;50.08;101124.59;5005231;28;45613;-73
2022/06/20 07:18:50;;;;;;;;;24.00;22.33;;;;;24.86;49.79;101116.13;5006289;28;46184;-74
2022/06/20 07:21:20;;;;;;;;;24.00;20.00;;;;;24.87;49.84;101109.66;5002285;28;45457;-74
2022/06/20 07:23:52;;;;;;;;;23.67;22.67;;;;;24.88;49.77;101110.53;5003845;28;45670;-74
2022/06/20 07:26:21;;;;;;;;;26.67;25.33;;;;;24.86;49.49;101110.69;5005969;28;45502;-74
2022/06/20 07:28:57;;;;;;;;;20.67;20.33;;;;;24.85;49.78;101107.09;4995766;28;46329;-72
2022/06/20 07:31:26;;;;;;;;;25.00;22.33;;;;;24.91;49.55;101112.88;4999848;28;45589;-72
2022/06/20 07:34:01;;;;;;;;;26.00;24.00;;;;;24.92;49.52;101128.16;5001355;28;45588;-71
2022/06/20 07:36:38;;;;;;;;;21.67;21.67;;;;;24.94;49.38;101126.13;5002670;28;47434;-72
2022/06/20 07:39:16;;;;;;;;;27.50;26.25;;;;;24.93;49.35;101129.88;5020436;28;46414;-72
2022/06/20 07:42:08;;;;;;;;;25.00;24.67;;;;;24.91;49.51;101127.31;5027712;28;45863;-72
2022/06/20 07:44:41;;;;;;;;;26.00;25.67;;;;;24.92;49.28;101118.16;5024488;28;49152;-72
2022/06/20 07:47:18;;;;;;;;;26.33;24.33;;;;;24.95;49.00;101114.25;5019661;28;45452;-72
2022/06/20 07:49:52;;;;;;;;;25.00;24.00;;;;;24.93;49.45;101114.41;5019055;28;45443;-72
2022/06/20 07:52:36;;;;;;;;;22.33;22.33;;;;;24.91;49.09;101118.31;5025428;28;46060;-72
2022/06/20 07:55:07;;;;;;;;;21.67;20.33;;;;;24.87;49.20;101123.22;5017221;28;45462;-72
2022/06/20 07:57:39;;;;;;;;;22.00;22.00;;;;;24.87;48.95;101125.94;5020621;28;45598;-72
2022/06/20 08:00:09;;;;;;;;;22.33;20.33;;;;;24.86;49.06;101132.41;5024962;28;47178;-72
2022/06/20 08:02:40;;;;;;;;;18.67;18.67;;;;;24.83;49.36;101132.72;5025870;28;45744;-72
2022/06/20 08:05:10;;;;;;;;;19.33;18.67;;;;;24.81;48.92;101135.56;5024871;28;45506;-74
2022/06/20 08:07:44;;;;;;;;;13.33;13.33;;;;;24.81;49.14;101145.59;5019964;28;45572;-73
2022/06/20 08:10:19;;;;;;;;;21.33;18.00;;;;;24.80;49.02;101152.88;5022974;28;46517;-75
2022/06/20 08:12:54;;;;;;;;;17.67;17.33;;;;;24.80;48.77;101155.59;5027447;28;45434;-77
2022/06/20 08:15:28;;;;;;;;;17.67;17.67;;;;;24.77;48.45;101158.63;5022020;28;45716;-76
2022/06/20 08:17:54;;;;;;;;;18.00;16.67;;;;;24.70;48.65;101165.75;5027539;28;45433;-74
2022/06/20 08:20:24;;;;;;;;;15.00;14.00;;;;;24.66;49.25;101153.53;5024522;28;46002;-74
2022/06/20 08:22:56;;;;;;;;;14.00;12.00;;;;;24.69;48.77;101174.94;5017439;28;45456;-72
2022/06/20 08:25:34;;;;;;;;;17.67;16.33;;;;;24.68;49.05;101173.22;5030671;28;45439;-73
2022/06/20 08:28:16;;;;;;;;;19.00;16.67;;;;;24.70;48.93;101174.75;5017113;28;45646;-72
2022/06/20 08:30:57;;;;;;;;;15.67;14.67;;;;;24.68;48.67;101167.81;5014851;28;45470;-71
2022/06/20 08:33:26;;;;;;;;;15.67;15.67;;;;;24.70;48.26;101168.47;5021900;28;45570;-71
2022/06/20 08:35:57;;;;;;;;;15.33;15.33;;;;;24.72;48.49;101175.44;5021536;28;45528;-71
2022/06/20 08:38:43;;;;;;;;;15.67;15.67;;;;;24.75;48.58;101179.69;5022713;28;45746;-71
2022/06/20 08:41:37;;;;;;;;;15.67;14.00;;;;;24.76;48.39;101178.66;4984625;28;45647;-72
2022/06/20 08:44:20;;;;;;;;;15.33;12.33;;;;;24.76;48.13;101183.25;4892175;29;45528;-72
2022/06/20 08:47:13;;;;;;;;;16.00;14.00;;;;;24.82;48.67;101179.88;4888469;29;45652;-74
2022/06/20 08:49:56;;;;;;;;;15.00;15.00;;;;;24.95;48.09;101184.84;4884632;29;45507;-74
2022/06/20 08:52:40;;;;;;;;;15.67;15.00;;;;;25.05;48.02;101174.66;4889771;29;45505;-74
2022/06/20 08:55:39;;;;;;;;;15.33;13.67;;;;;25.16;47.67;101186.22;4890427;29;45500;-74
2022/06/20 08:58:39;;;;;;;;;13.00;13.00;;;;;25.28;47.67;101176.72;4891159;28;45644;-72
2022/06/20 11:12:35;;;;;;;;;17.33;14.00;;;;;22.93;52.67;101288.47;5104779;27;45807;-74
2022/06/20 11:15:24;;;;;;;;;18.00;16.00;;;;;22.98;52.71;101282.63;5100741;27;45549;-72
2022/06/20 11:17:59;;;;;;;;;17.00;17.00;;;;;23.08;52.44;101287.97;5102754;27;45466;-74
2022/06/20 11:20:49;;;;;;;;;17.33;17.33;;;;;23.21;52.52;101290.34;5104056;27;52250;-71
2022/06/20 11:23:19;;;;;;;;;18.67;17.33;;;;;23.37;51.95;101293.22;5107046;27;45474;-72
2022/06/20 11:26:00;;;;;;;;;17.33;16.00;;;;;23.54;51.97;101283.41;5104992;27;45445;-72
2022/06/20 11:29:14;;;;;;;;;18.00;15.00;;;;;23.75;51.31;101286.78;5106429;27;45478;-71
2022/06/20 11:32:04;;;;;;;;;14.33;14.33;;;;;23.97;50.96;101288.16;5094201;27;49152;-72
2022/06/20 11:34:48;;;;;;;;;17.67;16.33;;;;;24.16;50.86;101287.09;5107673;27;45452;-72
2022/06/20 11:37:30;;;;;;;;;15.00;15.00;;;;;24.30;50.64;101284.81;5107737;27;52840;-72
2022/06/20 11:40:14;;;;;;;;;17.00;17.00;;;;;24.46;50.18;101270.50;5105572;27;45569;-72
2022/06/20 11:43:06;;;;;;;;;18.67;16.00;;;;;24.63;49.92;101265.13;5102344;27;45445;-72
2022/06/20 11:45:58;;;;;;;;;15.67;15.67;;;;;24.80;49.68;101266.91;5100871;27;46172;-75
2022/06/20 11:48:33;;;;;;;;;18.67;18.00;;;;;24.90;49.28;101265.94;5099687;27;45466;-74
2022/06/20 11:51:12;;;;;;;;;16.33;16.00;;;;;25.00;49.31;101263.94;5105333;27;45321;-71
2022/06/20 11:53:45;;;;;;;;;17.67;16.00;;;;;25.08;49.61;101269.38;5107485;27;45439;-74
2022/06/20 11:56:25;;;;;;;;;15.67;15.33;;;;;25.18;48.96;101262.97;5107968;27;45563;-75
2022/06/20 11:59:02;;;;;;;;;16.00;15.00;;;;;25.26;48.88;101261.09;5107234;27;45513;-75
2022/06/20 12:01:57;;;;;;;;;16.33;16.33;;;;;25.34;48.64;101262.13;5104513;27;45572;-74
2022/06/20 12:04:40;;;;;;;;;17.67;15.67;;;;;25.43;48.45;101266.56;5082671;27;45543;-75
2022/06/20 12:07:18;;;;;;;;;17.67;17.33;;;;;25.50;48.68;101256.69;5081279;27;45520;-71
2022/06/20 12:09:50;;;;;;;;;13.33;13.00;;;;;25.58;48.27;101260.47;5080853;27;45498;-73
2022/06/20 12:12:39;;;;;;;;;17.33;16.00;;;;;25.67;48.31;101266.75;5080804;27;46963;-73
2022/06/20 12:16:09;;;;;;;;;18.00;16.00;;;;;25.74;48.07;101257.75;5079803;27;45827;-72
2022/06/20 14:17:57;;;;;;;;;18.50;18.00;;;;;23.12;53.21;101206.31;5064843;27;45443;-77
2022/06/20 14:20:27;;;;;;;;;16.00;13.33;;;;;23.31;53.03;101204.44;5061054;28;45427;-77
2022/06/20 14:28:50;;;;;;;;;17.00;15.00;;;;;23.84;52.66;101199.09;5026440;28;45804;-76
2022/06/20 14:31:29;;;;;;;;;17.00;13.67;;;;;24.01;53.05;101199.19;5043109;28;45974;-75
2022/06/20 14:34:01;;;;;;;;;14.33;14.33;;;;;24.18;52.81;101201.03;5037368;28;46219;-74
2022/06/20 14:36:33;;;;;;;;;15.67;15.33;;;;;24.40;52.92;101195.19;5037159;28;45746;-76
2022/06/20 14:39:17;;;;;;;;;15.67;13.67;;;;;24.59;52.22;101184.06;5044747;28;46094;-74
2022/06/20 14:41:45;;;;;;;;;15.33;13.33;;;;;24.82;52.11;101182.59;5041966;28;45633;-74
2022/06/20 14:44:22;;;;;;;;;15.67;14.00;;;;;25.02;51.93;101171.44;5032597;28;45449;-74
2022/06/20 14:47:15;;;;;;;;;14.33;12.67;;;;;25.23;51.61;101174.53;5036286;28;45568;-78
2022/06/20 14:49:49;;;;;;;;;12.67;12.00;;;;;25.44;51.11;101158.69;5037284;28;46609;-78
2022/06/20 14:52:41;;;;;;;;;13.67;12.00;;;;;25.63;50.92;101168.41;5032690;28;45610;-79
2022/06/20 14:55:25;;;;;;;;;13.33;13.33;;;;;25.82;50.91;101172.59;5034572;28;46082;-81
2022/06/20 14:57:57;;;;;;;;;13.33;11.00;;;;;25.98;50.01;101157.25;5037886;28;45485;-81
2022/06/20 15:00:29;;;;;;;;;9.00;9.00;;;;;26.13;50.34;101160.94;5034377;28;45583;-78
2022/06/20 15:03:01;;;;;;;;;12.00;12.00;;;;;26.19;49.53;101159.38;5045154;28;45897;-75
2022/06/20 15:05:38;;;;;;;;;10.67;10.67;;;;;26.40;49.86;101177.84;5035268;28;45886;-75
2022/06/20 15:08:18;;;;;;;;;11.33;11.33;;;;;26.39;49.23;101158.97;5037584;28;46540;-78
2022/06/20 15:11:24;;;;;;;;;11.67;10.00;;;;;26.31;48.31;101165.31;5032746;28;46126;-80
2022/06/20 15:13:53;;;;;;;;;19.00;12.33;;;;;26.19;48.22;101162.09;5033701;28;45792;-79
2022/06/20 15:16:24;;;;;;;;;12.00;10.33;;;;;26.07;47.90;101153.47;5033081;28;45401;-82
2022/06/20 15:19:05;;;;;;;;;14.00;10.67;;;;;25.99;47.66;101158.97;5034679;28;45401;-77
2022/06/20 15:21:45;;;;;;;;;11.00;9.67;;;;;25.85;48.13;101136.91;5036611;28;45525;-75
2022/06/20 15:24:33;;;;;;;;;12.33;11.33;;;;;25.90;48.78;101149.97;5038265;28;45643;-75
2022/06/20 15:27:10;;;;;;;;;11.00;11.00;;;;;25.85;48.83;101155.94;5040903;28;45606;-76
2022/06/20 15:30:03;;;;;;;;;9.67;9.67;;;;;25.94;48.35;101153.22;5041233;28;45680;-75
2022/06/20 15:32:37;;;;;;;;;11.00;9.00;;;;;25.99;48.27;101148.09;5033052;28;45942;-77
2022/06/20 15:35:15;;;;;;;;;11.33;11.33;;;;;26.05;48.52;101156.41;5036819;28;45815;-77
2022/06/20 15:37:43;;;;;;;;;11.00;11.00;;;;;26.13;48.40;101154.66;5039845;28;45526;-77
2022/06/20 15:40:22;;;;;;;;;14.00;12.00;;;;;26.17;47.95;101161.44;5023668;28;45485;-75
2022/06/20 15:43:10;;;;;;;;;11.33;11.33;;;;;26.17;47.79;101165.00;5026582;28;45537;-76
2022/06/20 15:45:45;;;;;;;;;15.00;13.33;;;;;26.17;48.58;101162.28;5022845;28;45614;-76
2022/06/20 15:48:21;;;;;;;;;9.33;9.00;;;;;26.17;48.34;101164.16;5023793;28;45987;-73
2022/06/20 15:50:59;;;;;;;;;15.00;11.67;;;;;26.05;47.89;101147.38;5025693;28;45531;-72
2022/06/20 15:53:33;;;;;;;;;9.67;9.67;;;;;26.12;48.78;101156.50;5019312;28;46146;-72
2022/06/20 15:56:10;;;;;;;;;10.00;9.33;;;;;26.13;48.50;101166.41;5022344;28;45673;-72
2022/06/20 15:58:45;;;;;;;;;10.67;9.67;;;;;26.15;48.74;101166.19;5021999;28;49045;-72
2022/06/20 16:01:47;;;;;;;;;12.67;11.67;;;;;26.21;48.72;101161.94;5020047;28;45382;-72
2022/06/20 16:04:21;;;;;;;;;12.33;10.33;;;;;26.26;48.13;101151.41;5026729;28;45442;-73
2022/06/20 16:07:01;;;;;;;;;11.67;10.33;;;;;26.27;48.04;101153.09;5020489;28;45451;-72
2022/06/20 16:09:57;;;;;;;;;12.33;11.00;;;;;26.28;47.65;101166.50;5026780;28;45400;-72
2022/06/20 16:12:24;;;;;;;;;11.00;10.33;;;;;26.30;47.90;101156.31;5024002;28;45506;-72
2022/06/20 16:15:00;;;;;;;;;8.33;8.00;;;;;26.31;47.47;101162.59;5026792;28;45507;-71
2022/06/20 16:17:33;;;;;;;;;8.00;8.00;;;;;26.31;47.09;101155.28;5022628;28;45891;-73
2022/06/20 16:19:59;;;;;;;;;11.00;9.67;;;;;26.30;47.50;101159.03;5025230;28;45448;-74
2022/06/20 16:22:27;;;;;;;;;7.33;7.33;;;;;26.26;47.17;101151.41;5026518;28;45399;-74
2022/06/20 16:25:04;;;;;;;;;8.33;8.00;;;;;26.26;47.52;101168.56;5028360;28;45936;-74
2022/06/20 16:27:29;;;;;;;;;11.00;10.67;;;;;26.25;47.29;101157.88;5032367;28;46142;-74
2022/06/20 16:29:58;;;;;;;;;11.67;11.67;;;;;26.20;46.68;101160.25;5027251;28;45310;-74
2022/06/20 16:32:33;;;;;;;;;8.67;8.33;;;;;26.15;47.13;101171.63;5029153;28;45465;-75
2022/06/20 16:35:18;;;;;;;;;11.00;10.00;;;;;26.11;47.03;101167.59;5031078;28;47168;-74
2022/06/20 16:37:44;;;;;;;;;11.67;11.67;;;;;26.05;47.06;101161.84;5024706;28;45427;-75
2022/06/20 16:40:17;;;;;;;;;12.00;10.67;;;;;26.03;47.48;101163.00;5028382;28;45527;-77
2022/06/20 16:43:00;;;;;;;;;10.00;10.00;;;;;26.02;47.00;101162.19;5020555;28;45787;-77
2022/06/20 16:45:41;;;;;;;;;10.33;10.33;;;;;26.01;47.04;101167.78;5027917;28;45542;-75
2022/06/20 16:48:45;;;;;;;;;10.00;9.33;;;;;26.03;46.88;101161.16;5024584;28;45729;-76
2022/06/20 16:52:06;;;;;;;;;12.00;10.00;;;;;26.08;47.30;101148.91;5028177;28;45489;-76
2022/06/20 16:54:48;;;;;;;;;8.67;8.67;;;;;26.11;46.55;101151.28;4925312;28;46054;-76
2022/06/20 16:57:38;;;;;;;;;7.67;7.67;;;;;26.09;46.52;101148.72;4927225;28;45943;-75
2022/06/20 17:00:06;;;;;;;;;11.67;10.33;;;;;26.03;46.61;101147.53;4928963;28;45522;-74
2022/06/20 17:02:43;;;;;;;;;11.00;9.00;;;;;25.95;46.47;101144.84;4931133;28;46857;-75
2022/06/20 17:05:10;;;;;;;;;12.00;9.33;;;;;25.87;46.40;101140.28;4928276;28;45552;-74
2022/06/20 17:08:04;;;;;;;;;21.67;21.67;;;;;25.81;47.38;101132.84;4911835;28;46147;-72
2022/06/20 17:10:51;;;;;;;;;21.67;18.33;;;;;25.76;48.68;101125.19;4913437;28;45507;-72
2022/06/20 17:13:41;;;;;;;;;22.67;20.67;;;;;25.68;48.59;101129.81;4926864;28;48507;-74
2022/06/20 17:16:46;;;;;;;;;22.67;16.67;;;;;25.64;48.64;101127.47;4929899;28;45648;-75
2022/06/20 17:19:27;;;;;;;;;14.00;14.00;;;;;25.63;48.19;101128.47;4929118;28;46165;-76
2022/06/20 17:22:01;;;;;;;;;9.00;9.00;;;;;25.64;47.40;101137.47;4930678;28;45609;-75
2022/06/20 17:24:32;;;;;;;;;9.67;9.67;;;;;25.64;47.75;101142.91;4927725;28;45668;-75
2022/06/20 17:27:45;;;;;;;;;9.00;9.00;;;;;25.65;47.33;101133.72;4927025;28;45571;-76
